Time;durP1;ratioP1;P1;durP2;ratioP2;P2;SDS_P1;SDS_P2;PMS_P1;PMS_P2;Temp;Humidity;BMP_temperature;BMP_pressure;BME280_temperature;BME280_humidity;BME280_pressure;Samples;Min_cycle;Max_cycle;Signal;HPM_P1;HPM_P2
2023/05/08 00:01:29;;;;;;;10.70;8.80;;;;;;;4.50;97.17;97523.86;109202;1266;25285;-81
2023/05/08 00:04:00;;;;;;;9.00;7.70;;;;;;;4.49;97.38;97523.42;109198;1252;23624;-82
2023/05/08 00:06:31;;;;;;;10.90;8.10;;;;;;;4.50;97.20;97522.65;109143;1272;23814;-81
2023/05/08 00:09:02;;;;;;;10.00;8.70;;;;;;;4.51;97.39;97521.56;109173;1269;22622;-82
2023/05/08 00:11:33;;;;;;;11.40;7.70;;;;;;;4.52;97.32;97524.10;109145;1272;22561;-82
2023/05/08 00:14:04;;;;;;;10.20;7.50;;;;;;;4.49;97.36;97526.26;109167;1272;22512;-82
2023/05/08 00:16:36;;;;;;;9.00;7.50;;;;;;;4.42;97.17;97526.28;109168;1272;25891;-82
2023/05/08 00:19:07;;;;;;;9.90;7.30;;;;;;;4.40;97.27;97529.61;109130;1266;22621;-82
2023/05/08 00:21:38;;;;;;;8.40;6.80;;;;;;;4.35;97.10;97530.71;109119;1272;22507;-82
2023/05/08 00:24:10;;;;;;;7.90;6.90;;;;;;;4.23;97.08;97532.19;109139;1272;25424;-82
2023/05/08 00:26:43;;;;;;;8.60;6.40;;;;;;;4.18;97.27;97533.96;109177;1272;22518;-82
2023/05/08 00:29:14;;;;;;;7.50;5.70;;;;;;;4.13;97.25;97534.45;109186;1266;22550;-82
2023/05/08 00:31:44;;;;;;;7.10;5.50;;;;;;;4.10;97.27;97533.27;109158;1265;22518;-82
2023/05/08 00:34:15;;;;;;;7.60;6.10;;;;;;;4.11;97.36;97532.54;109122;1272;23818;-82
2023/05/08 00:36:46;;;;;;;9.20;7.10;;;;;;;4.12;97.20;97534.73;109155;1250;22503;-82
2023/05/08 00:39:18;;;;;;;10.80;8.10;;;;;;;4.09;97.43;97534.44;109153;1269;22465;-82
2023/05/08 00:41:49;;;;;;;12.70;10.30;;;;;;;4.02;97.58;97537.11;109144;1258;22511;-81
2023/05/08 00:44:20;;;;;;;13.80;11.70;;;;;;;3.96;98.03;97540.23;109173;1266;24286;-82
2023/05/08 00:46:52;;;;;;;19.40;11.40;;;;;;;3.89;98.27;97541.16;109182;1266;23704;-81
2023/05/08 00:49:23;;;;;;;11.60;8.80;;;;;;;3.83;99.27;97542.90;109126;1272;22519;-81
2023/05/08 00:51:56;;;;;;;12.90;10.20;;;;;;;3.70;99.99;97547.78;109250;1272;24180;-81
2023/05/08 00:54:29;;;;;;;14.80;11.40;;;;;;;3.62;100.00;97545.88;109265;1272;22565;-81
2023/05/08 00:57:00;;;;;;;12.20;8.90;;;;;;;3.62;100.00;97544.23;109316;1266;22524;-81
2023/05/08 00:59:31;;;;;;;13.90;11.20;;;;;;;3.64;100.00;97548.75;109319;1272;25270;-81
2023/05/08 01:02:03;;;;;;;14.10;10.70;;;;;;;3.58;100.00;97548.90;109203;1272;22511;-81
2023/05/08 01:04:36;;;;;;;13.50;10.90;;;;;;;3.58;100.00;97546.80;109125;1266;22565;-81
2023/05/08 01:07:08;;;;;;;13.20;9.60;;;;;;;3.64;100.00;97548.02;109184;1272;24398;-81
2023/05/08 01:09:38;;;;;;;10.60;8.90;;;;;;;3.66;100.00;97546.23;109128;1272;22518;-82
2023/05/08 01:12:20;;;;;;;11.50;9.30;;;;;;;3.69;100.00;97547.43;109171;1266;22552;-82
2023/05/08 01:15:02;;;;;;;12.80;9.10;;;;;;;3.73;100.00;97547.20;109164;1266;22520;-81
2023/05/08 01:17:43;;;;;;;12.90;9.60;;;;;;;3.72;100.00;97550.48;109191;1272;22711;-82
2023/05/08 01:20:26;;;;;;;12.70;10.80;;;;;;;3.76;100.00;97551.05;109177;1266;22503;-81
2023/05/08 01:23:17;;;;;;;14.90;11.20;;;;;;;3.75;100.00;97550.61;109252;1266;23390;-81
2023/05/08 01:26:22;;;;;;;12.30;10.60;;;;;;;3.76;100.00;97553.27;109281;1272;22563;-82
2023/05/08 01:29:40;;;;;;;13.10;11.50;;;;;;;3.78;100.00;97554.73;109306;1271;22634;-82
2023/05/08 01:32:23;;;;;;;12.70;10.80;;;;;;;3.83;100.00;97553.52;109265;1272;22515;-82
2023/05/08 01:35:03;;;;;;;11.20;9.10;;;;;;;3.87;100.00;97552.31;109299;1253;22517;-82
2023/05/08 01:37:40;;;;;;;12.20;9.90;;;;;;;3.88;99.98;97558.44;109332;1266;22621;-82
2023/05/08 01:40:22;;;;;;;10.90;8.70;;;;;;;3.88;99.99;97556.17;109348;1270;22536;-82
2023/05/08 01:43:06;;;;;;;10.00;8.80;;;;;;;3.88;99.90;97558.56;109335;1268;22469;-82
2023/05/08 01:45:44;;;;;;;9.70;8.20;;;;;;;3.89;99.93;97554.44;109290;1266;22510;-82
2023/05/08 01:48:26;;;;;;;10.40;8.20;;;;;;;3.91;99.92;97556.64;109299;1272;22475;-82
2023/05/08 01:51:00;;;;;;;9.90;7.80;;;;;;;3.93;99.77;97557.68;109186;1269;22556;-82
2023/05/08 01:53:36;;;;;;;10.30;8.00;;;;;;;3.96;99.69;97554.69;109148;1272;23806;-81
2023/05/08 01:56:13;;;;;;;9.20;7.80;;;;;;;3.98;99.68;97554.47;109130;1273;22511;-82
2023/05/08 01:58:45;;;;;;;9.50;7.90;;;;;;;3.94;99.32;97560.55;109178;1272;22818;-82
2023/05/08 02:01:18;;;;;;;9.60;7.90;;;;;;;3.94;99.34;97559.17;109126;1266;24158;-82
2023/05/08 02:03:50;;;;;;;10.00;7.30;;;;;;;3.93;99.30;97560.17;109173;1269;22476;-81
2023/05/08 02:06:25;;;;;;;9.70;7.00;;;;;;;3.92;99.08;97560.34;109116;1262;22504;-82
2023/05/08 02:08:59;;;;;;;9.90;8.40;;;;;;;3.92;99.12;97560.50;109132;1272;22796;-82
2023/05/08 02:11:31;;;;;;;8.30;7.00;;;;;;;3.92;99.00;97560.14;109120;1269;22513;-82
2023/05/08 02:14:04;;;;;;;8.60;6.80;;;;;;;3.94;99.05;97562.20;109139;1259;22541;-82
2023/05/08 02:16:37;;;;;;;8.50;6.70;;;;;;;3.96;98.96;97563.13;109171;1272;25262;-82
2023/05/08 02:19:10;;;;;;;8.80;7.00;;;;;;;3.97;98.87;97565.41;109161;1269;22553;-82
2023/05/08 02:21:43;;;;;;;8.80;7.90;;;;;;;3.97;98.88;97566.27;109119;1265;23588;-81
2023/05/08 02:24:15;;;;;;;9.10;7.90;;;;;;;3.95;98.73;97564.17;109212;1269;23293;-82
2023/05/08 02:26:48;;;;;;;10.10;8.00;;;;;;;3.86;98.75;97568.42;109154;1266;22714;-82
2023/05/08 02:29:21;;;;;;;9.40;8.30;;;;;;;3.79;99.00;97567.52;109159;1272;22598;-81
2023/05/08 02:31:54;;;;;;;9.90;8.00;;;;;;;3.76;99.04;97567.38;109251;1272;22535;-82
2023/05/08 02:34:26;;;;;;;9.40;7.90;;;;;;;3.76;99.10;97565.13;109317;1266;22519;-81
2023/05/08 02:36:58;;;;;;;9.30;7.50;;;;;;;3.80;99.17;97564.91;109323;1266;25259;-82
2023/05/08 02:39:34;;;;;;;10.20;8.20;;;;;;;3.86;99.28;97568.02;109213;1272;22620;-82
2023/05/08 02:42:05;;;;;;;9.40;7.70;;;;;;;3.85;99.43;97569.73;109137;1269;22739;-82
2023/05/08 02:44:36;;;;;;;9.20;8.00;;;;;;;3.87;99.28;97573.79;109207;1272;22578;-81
2023/05/08 02:47:16;;;;;;;10.20;7.80;;;;;;;3.90;99.10;97574.08;109150;1273;22526;-81
2023/05/08 02:49:53;;;;;;;8.50;7.60;;;;;;;3.93;99.05;97574.27;109160;1266;22648;-82
2023/05/08 02:52:30;;;;;;;8.40;7.10;;;;;;;3.92;98.83;97576.28;109257;1266;24156;-81
2023/05/08 02:55:04;;;;;;;9.50;8.00;;;;;;;3.90;98.74;97574.29;109260;1272;22517;-81
2023/05/08 02:57:42;;;;;;;10.80;8.30;;;;;;;3.91;98.74;97573.70;109288;1266;25418;-81
2023/05/08 03:00:21;;;;;;;8.50;7.40;;;;;;;3.95;98.80;97570.27;109200;1268;23758;-82
2023/05/08 03:02:56;;;;;;;9.00;7.00;;;;;;;3.97;98.72;97572.23;109270;1266;25438;-81
2023/05/08 03:05:30;;;;;;;8.10;7.10;;;;;;;3.99;98.57;97573.52;109278;1266;22507;-82
2023/05/08 03:08:06;;;;;;;8.50;7.10;;;;;;;4.01;98.60;97577.04;109278;1251;22466;-82
2023/05/08 03:10:39;;;;;;;8.70;7.00;;;;;;;4.01;98.43;97574.78;109272;1266;22562;-81
2023/05/08 03:13:13;;;;;;;8.60;7.50;;;;;;;4.00;98.34;97574.64;109204;1271;22832;-81
2023/05/08 03:15:48;;;;;;;8.00;6.50;;;;;;;4.00;98.30;97573.54;109238;1272;22461;-81
2023/05/08 03:18:23;;;;;;;9.00;7.20;;;;;;;4.01;98.34;97572.68;109208;1266;22620;-81
2023/05/08 03:20:58;;;;;;;8.40;6.80;;;;;;;4.02;98.33;97567.66;109220;1271;22528;-82
2023/05/08 03:23:30;;;;;;;9.40;7.00;;;;;;;4.02;98.35;97568.08;109278;1272;25294;-81
2023/05/08 03:26:03;;;;;;;7.10;6.10;;;;;;;4.01;98.25;97572.04;109283;1272;24264;-81
2023/05/08 03:28:35;;;;;;;9.10;6.60;;;;;;;4.00;98.27;97572.73;109260;1272;22576;-81
2023/05/08 03:31:07;;;;;;;7.00;5.90;;;;;;;3.97;98.20;97576.77;109214;1266;22581;-82
2023/05/08 03:33:39;;;;;;;7.70;6.10;;;;;;;3.95;98.20;97574.27;109230;1271;23811;-81
2023/05/08 03:36:11;;;;;;;6.90;5.40;;;;;;;3.94;98.25;97572.61;109265;1265;22688;-81
2023/05/08 03:38:42;;;;;;;6.00;5.10;;;;;;;3.96;98.33;97574.46;109201;1271;22507;-82
2023/05/08 03:41:14;;;;;;;7.20;5.60;;;;;;;3.96;98.26;97573.61;109246;1271;22514;-81
2023/05/08 03:43:45;;;;;;;6.20;5.40;;;;;;;3.96;98.21;97573.41;109257;1266;22705;-81
2023/05/08 03:46:19;;;;;;;7.40;5.90;;;;;;;3.98;98.32;97569.96;109238;1272;22475;-81
2023/05/08 03:48:51;;;;;;;7.10;5.30;;;;;;;3.99;98.25;97575.77;109256;1272;22510;-81
2023/05/08 03:51:23;;;;;;;7.50;6.00;;;;;;;3.98;98.14;97581.23;109197;1271;22504;-81
2023/05/08 03:53:54;;;;;;;8.00;5.60;;;;;;;3.98;98.11;97587.60;109268;1269;22695;-81
2023/05/08 03:56:25;;;;;;;6.70;5.90;;;;;;;3.97;98.06;97587.40;109228;1269;22528;-81
2023/05/08 03:59:07;;;;;;;7.20;6.00;;;;;;;3.98;98.24;97587.33;109252;1271;23439;-81
2023/05/08 04:01:40;;;;;;;9.20;6.80;;;;;;;3.95;98.10;97589.00;109142;1272;22718;-81
2023/05/08 04:04:19;;;;;;;9.70;7.50;;;;;;;3.92;97.90;97587.27;109015;1272;194037;-81
2023/05/08 04:06:59;;;;;;;9.30;7.70;;;;;;;3.85;97.99;97584.34;109140;1266;22473;-81
2023/05/08 04:09:37;;;;;;;8.60;7.10;;;;;;;3.81;97.94;97588.12;109142;1272;22575;-82
2023/05/08 04:12:22;;;;;;;8.10;7.00;;;;;;;3.81;97.97;97587.55;109227;1269;22525;-81
2023/05/08 04:14:56;;;;;;;9.60;7.30;;;;;;;3.82;97.97;97589.36;109261;1272;22474;-81
2023/05/08 04:17:36;;;;;;;9.80;7.20;;;;;;;3.81;97.84;97595.78;109201;1272;22565;-81
2023/05/08 04:20:12;;;;;;;10.50;8.00;;;;;;;3.79;97.76;97600.21;109205;1272;22524;-81
2023/05/08 04:22:47;;;;;;;10.30;8.30;;;;;;;3.77;97.69;97603.29;109128;1272;22515;-81
2023/05/08 04:25:19;;;;;;;9.30;8.00;;;;;;;3.75;97.56;97604.11;109142;1266;22512;-81
2023/05/08 04:27:51;;;;;;;10.90;8.70;;;;;;;3.78;97.71;97607.92;109129;1272;24385;-81
2023/05/08 04:30:22;;;;;;;10.80;9.00;;;;;;;3.81;97.69;97611.20;109139;1265;22601;-80
2023/05/08 04:32:54;;;;;;;11.00;9.20;;;;;;;3.83;97.70;97615.55;109225;1272;24199;-81
2023/05/08 04:35:25;;;;;;;11.20;10.00;;;;;;;3.83;97.64;97620.94;109205;1272;22640;-81
2023/05/08 04:37:56;;;;;;;12.10;10.90;;;;;;;3.83;97.50;97622.12;109206;1269;22514;-81
2023/05/08 04:40:29;;;;;;;9.80;8.80;;;;;;;3.84;97.49;97621.79;109181;1272;25438;-81
2023/05/08 04:43:00;;;;;;;11.80;10.00;;;;;;;3.84;97.63;97625.26;109147;1269;22925;-81
2023/05/08 04:45:31;;;;;;;13.30;10.20;;;;;;;3.83;97.61;97627.64;109165;1272;22507;-81
2023/05/08 04:48:03;;;;;;;10.70;9.30;;;;;;;3.84;97.69;97629.94;109162;1266;22476;-81
2023/05/08 04:50:34;;;;;;;9.90;8.60;;;;;;;3.88;97.77;97632.25;109118;1269;22507;-82
2023/05/08 04:53:05;;;;;;;9.10;8.10;;;;;;;3.91;97.75;97636.91;109166;1270;23548;-81
2023/05/08 04:55:37;;;;;;;11.10;8.20;;;;;;;3.94;97.84;97639.32;109171;1250;22611;-81
2023/05/08 04:58:10;;;;;;;9.70;7.80;;;;;;;3.93;97.65;97639.20;109096;1266;22574;-81
2023/05/08 05:00:41;;;;;;;10.30;7.60;;;;;;;3.93;97.48;97640.33;109164;1272;22630;-81
2023/05/08 05:03:12;;;;;;;10.90;7.80;;;;;;;3.93;97.41;97642.18;109136;1265;22462;-81
2023/05/08 05:05:43;;;;;;;9.70;7.70;;;;;;;3.93;97.40;97645.58;109146;1272;24219;-81
2023/05/08 05:08:13;;;;;;;11.50;9.50;;;;;;;3.92;97.24;97648.69;109154;1267;22556;-82
2023/05/08 05:10:44;;;;;;;10.90;9.40;;;;;;;3.92;97.23;97651.83;109145;1272;23394;-81
2023/05/08 05:13:15;;;;;;;12.70;10.60;;;;;;;3.92;97.32;97655.10;109166;1250;22527;-81
2023/05/08 05:15:46;;;;;;;11.50;10.00;;;;;;;3.92;97.20;97660.02;109127;1272;22820;-81
2023/05/08 05:18:18;;;;;;;11.60;9.90;;;;;;;3.92;97.11;97659.02;109162;1266;25440;-82
2023/05/08 05:20:49;;;;;;;12.60;10.20;;;;;;;3.94;97.17;97658.33;109130;1272;22573;-81
2023/05/08 05:23:20;;;;;;;12.40;9.70;;;;;;;3.96;97.02;97664.39;109168;1272;22688;-81
2023/05/08 05:25:51;;;;;;;13.20;9.60;;;;;;;3.99;97.05;97663.80;109157;1272;22455;-81
2023/05/08 05:28:23;;;;;;;10.60;9.50;;;;;;;3.99;96.85;97666.49;109149;1273;25272;-81
2023/05/08 05:30:54;;;;;;;10.60;8.20;;;;;;;3.98;96.78;97670.23;109115;1269;23549;-81
2023/05/08 05:33:25;;;;;;;11.20;9.40;;;;;;;3.97;96.64;97670.84;109113;1266;23004;-81
2023/05/08 05:35:56;;;;;;;10.90;8.80;;;;;;;4.01;96.70;97670.52;109145;1270;22563;-82
2023/05/08 05:38:27;;;;;;;10.50;8.60;;;;;;;4.07;96.73;97675.13;109164;1266;25940;-81
2023/05/08 05:40:58;;;;;;;10.50;8.80;;;;;;;4.12;96.78;97676.77;109116;1273;25385;-81
2023/05/08 05:43:29;;;;;;;10.00;8.40;;;;;;;4.15;96.58;97679.85;109113;1273;25243;-81
2023/05/08 05:46:06;;;;;;;9.00;8.10;;;;;;;4.21;96.60;97684.38;109133;1266;22456;-81
2023/05/08 05:48:39;;;;;;;10.80;8.00;;;;;;;4.20;96.23;97679.05;109112;1249;22925;-82
2023/05/08 05:51:10;;;;;;;10.10;7.70;;;;;;;4.20;96.05;97682.45;109152;1266;22512;-81
2023/05/08 05:53:42;;;;;;;8.70;7.80;;;;;;;4.20;95.90;97680.45;109123;1272;22636;-81
2023/05/08 05:56:13;;;;;;;9.20;8.20;;;;;;;4.25;95.98;97681.05;109126;1272;24264;-81
2023/05/08 05:58:44;;;;;;;8.40;7.50;;;;;;;4.29;95.92;97687.77;109196;1272;22522;-81
2023/05/08 06:01:15;;;;;;;8.30;7.40;;;;;;;4.29;95.62;97688.98;109123;1272;22518;-81
2023/05/08 06:03:46;;;;;;;9.60;7.50;;;;;;;4.26;95.26;97688.88;109170;1272;22606;-81
2023/05/08 06:06:17;;;;;;;9.30;7.60;;;;;;;4.21;94.98;97691.77;109140;1272;22513;-81
2023/05/08 06:08:48;;;;;;;11.20;7.70;;;;;;;4.21;95.11;97692.81;109167;1272;22550;-81
2023/05/08 06:11:21;;;;;;;7.90;6.60;;;;;;;4.19;95.23;97695.80;109159;1269;23971;-81
2023/05/08 06:13:52;;;;;;;8.30;7.10;;;;;;;4.18;95.11;97701.02;109089;1273;22552;-81
2023/05/08 06:16:23;;;;;;;8.90;6.90;;;;;;;4.19;95.01;97700.73;109158;1272;24189;-82
2023/05/08 06:18:55;;;;;;;8.00;6.90;;;;;;;4.20;94.92;97705.70;109157;1269;24293;-81
2023/05/08 06:21:27;;;;;;;9.70;6.50;;;;;;;4.20;94.71;97709.48;109223;1272;22480;-81
2023/05/08 06:23:58;;;;;;;9.10;6.40;;;;;;;4.13;94.29;97713.30;109252;1267;22725;-82
2023/05/08 06:26:29;;;;;;;9.30;6.20;;;;;;;4.04;94.18;97710.98;109258;1272;22581;-81
2023/05/08 06:29:00;;;;;;;7.20;6.20;;;;;;;4.06;94.61;97713.55;109274;1271;22475;-82
2023/05/08 06:31:31;;;;;;;8.80;6.70;;;;;;;4.10;94.78;97715.54;109232;1264;22533;-81
2023/05/08 06:34:02;;;;;;;8.00;6.40;;;;;;;4.13;94.70;97717.26;109216;1272;22473;-81
2023/05/08 06:36:33;;;;;;;8.20;6.50;;;;;;;4.12;94.59;97720.17;109262;1272;22523;-81
2023/05/08 06:39:06;;;;;;;8.10;7.10;;;;;;;4.15;94.68;97721.67;109253;1269;22501;-81
2023/05/08 06:41:37;;;;;;;9.10;7.10;;;;;;;4.16;94.32;97722.33;109253;1272;25440;-81
2023/05/08 06:44:08;;;;;;;9.80;7.20;;;;;;;4.16;94.27;97724.73;109223;1269;25977;-81
2023/05/08 06:46:39;;;;;;;9.40;6.90;;;;;;;4.17;94.28;97723.20;109217;1272;23286;-81
2023/05/08 06:49:10;;;;;;;7.70;6.60;;;;;;;4.19;94.32;97725.89;109219;1272;24166;-81
2023/05/08 06:51:41;;;;;;;8.90;7.10;;;;;;;4.22;94.29;97733.23;109248;1272;25252;-81
2023/05/08 06:54:12;;;;;;;9.00;7.10;;;;;;;4.25;94.32;97736.05;109289;1271;22505;-81
2023/05/08 06:56:43;;;;;;;9.30;7.30;;;;;;;4.26;94.01;97738.95;109266;1272;22573;-81
2023/05/08 06:59:14;;;;;;;10.50;6.50;;;;;;;4.31;94.09;97738.91;109212;1272;22527;-81
2023/05/08 07:01:45;;;;;;;9.60;7.30;;;;;;;4.31;93.52;97739.08;109242;1267;22511;-81
2023/05/08 07:04:16;;;;;;;8.40;7.30;;;;;;;4.31;93.51;97740.95;109259;1272;22512;-81
2023/05/08 07:06:47;;;;;;;9.50;6.70;;;;;;;4.34;93.80;97739.63;109251;1272;22557;-81
2023/05/08 07:09:18;;;;;;;10.10;7.30;;;;;;;4.38;93.59;97741.85;109261;1272;23367;-82
2023/05/08 07:11:49;;;;;;;8.30;6.20;;;;;;;4.42;93.69;97742.14;109161;1272;22557;-81
2023/05/08 07:14:20;;;;;;;7.70;6.80;;;;;;;4.50;93.50;97743.02;109160;1269;22557;-81
2023/05/08 07:16:51;;;;;;;7.40;6.20;;;;;;;4.60;93.23;97744.52;109155;1266;22679;-81
2023/05/08 07:19:22;;;;;;;6.70;5.80;;;;;;;4.68;92.83;97749.98;109164;1272;22666;-81
2023/05/08 07:21:53;;;;;;;8.20;5.60;;;;;;;4.71;92.52;97747.20;109244;1272;22809;-81
2023/05/08 07:24:24;;;;;;;7.50;6.40;;;;;;;4.74;92.34;97753.44;109223;1269;24026;-81
2023/05/08 07:26:55;;;;;;;7.70;6.10;;;;;;;4.66;90.73;97752.70;109237;1269;22523;-82
2023/05/08 07:29:26;;;;;;;9.50;6.60;;;;;;;4.66;91.67;97754.95;109245;1271;22737;-82
2023/05/08 07:31:57;;;;;;;7.60;6.20;;;;;;;4.70;91.51;97758.05;109163;1266;22518;-81
2023/05/08 07:34:28;;;;;;;7.40;6.50;;;;;;;4.73;90.87;97757.29;109146;1250;22674;-81
2023/05/08 07:36:59;;;;;;;7.10;6.30;;;;;;;4.85;91.38;97760.73;109162;1272;22571;-81
2023/05/08 07:39:30;;;;;;;7.40;5.80;;;;;;;4.87;90.22;97759.90;109146;1272;22558;-81
2023/05/08 07:42:02;;;;;;;7.80;5.80;;;;;;;4.93;91.08;97760.70;109212;1272;24209;-81
2023/05/08 07:44:34;;;;;;;7.10;5.50;;;;;;;5.12;91.58;97760.44;109246;1272;22530;-81
2023/05/08 07:47:05;;;;;;;7.30;6.20;;;;;;;5.36;91.49;97766.19;109237;1272;22533;-81
2023/05/08 07:49:36;;;;;;;7.40;5.80;;;;;;;5.51;90.57;97765.48;109271;1272;22545;-82
2023/05/08 07:52:08;;;;;;;6.30;5.60;;;;;;;5.48;88.83;97761.30;109123;1272;22471;-81
2023/05/08 07:54:39;;;;;;;6.30;5.40;;;;;;;5.28;87.45;97761.68;109157;1271;24272;-81
2023/05/08 07:57:10;;;;;;;8.50;6.00;;;;;;;5.20;88.43;97762.77;109156;1250;22576;-82
2023/05/08 07:59:41;;;;;;;7.60;5.90;;;;;;;5.23;89.13;97767.80;109165;1272;22915;-81
2023/05/08 08:02:13;;;;;;;7.60;6.20;;;;;;;5.31;89.36;97767.92;109209;1266;22773;-81
2023/05/08 08:04:44;;;;;;;6.90;6.10;;;;;;;5.38;89.41;97770.66;109270;1262;22537;-81
2023/05/08 08:07:15;;;;;;;6.40;5.40;;;;;;;5.47;89.59;97769.36;109248;1272;22549;-81
2023/05/08 08:09:46;;;;;;;9.20;6.00;;;;;;;5.59;89.32;97772.63;109202;1272;36758;-82
2023/05/08 08:12:17;;;;;;;9.40;5.30;;;;;;;5.72;89.15;97772.63;109244;1266;22508;-82
2023/05/08 08:14:48;;;;;;;6.40;4.80;;;;;;;5.84;88.85;97771.83;109243;1272;22530;-82
2023/05/08 08:17:19;;;;;;;5.60;4.70;;;;;;;5.92;88.00;97770.90;109268;1272;22484;-82
2023/05/08 08:19:50;;;;;;;6.70;4.60;;;;;;;5.93;85.55;97774.13;109226;1272;23724;-82
2023/05/08 08:22:21;;;;;;;8.60;4.90;;;;;;;5.82;84.87;97777.02;109124;1269;24020;-82
2023/05/08 08:24:54;;;;;;;5.20;4.70;;;;;;;5.79;86.16;97775.08;109124;1269;24231;-82
2023/05/08 08:27:25;;;;;;;6.00;4.30;;;;;;;5.82;86.65;97774.88;109178;1272;24240;-81
2023/05/08 08:29:56;;;;;;;5.80;4.50;;;;;;;5.80;86.39;97775.83;109151;1272;22513;-82
2023/05/08 08:32:28;;;;;;;6.50;3.90;;;;;;;5.77;85.50;97778.90;109180;1266;22585;-81
2023/05/08 08:34:59;;;;;;;4.70;3.70;;;;;;;5.72;85.18;97778.98;109130;1269;22469;-81
2023/05/08 08:37:30;;;;;;;6.30;4.20;;;;;;;5.80;85.88;97777.09;109106;1267;22544;-81
2023/05/08 08:40:01;;;;;;;4.50;3.50;;;;;;;5.92;85.82;97784.35;109134;1272;22622;-82
2023/05/08 08:42:32;;;;;;;5.10;3.80;;;;;;;5.94;84.94;97780.53;109179;1272;23432;-82
2023/05/08 08:45:04;;;;;;;4.80;3.60;;;;;;;5.95;84.60;97782.61;109140;1272;22526;-81
2023/05/08 08:47:38;;;;;;;4.60;3.90;;;;;;;5.95;81.41;97781.81;109162;1272;22562;-81
2023/05/08 08:50:13;;;;;;;5.00;3.60;;;;;;;7.36;81.55;97772.56;109112;1272;22508;-81
2023/05/08 08:52:55;;;;;;;4.40;3.30;;;;;;;10.44;77.48;97764.36;109137;1249;22539;-81
2023/05/08 08:55:27;;;;;;;4.10;3.50;;;;;;;11.30;73.43;97758.59;109174;1272;22595;-81
2023/05/08 08:58:07;;;;;;;5.20;3.60;;;;;;;10.54;74.63;97761.13;109138;1272;22566;-82
2023/05/08 09:00:39;;;;;;;3.80;3.00;;;;;;;9.48;71.61;97763.02;109141;1272;25201;-81
2023/05/08 09:03:10;;;;;;;5.30;3.40;;;;;;;8.67;72.92;97766.45;109144;1272;22527;-81
2023/05/08 09:05:51;;;;;;;4.20;3.30;;;;;;;8.27;73.68;97772.98;109134;1272;25230;-81
2023/05/08 09:08:31;;;;;;;6.00;3.40;;;;;;;7.91;73.91;97773.88;109164;1263;22516;-81
2023/05/08 09:11:14;;;;;;;5.40;3.10;;;;;;;7.46;72.20;97770.73;109118;1267;22519;-81
2023/05/08 09:13:50;;;;;;;5.00;2.90;;;;;;;7.15;73.24;97776.76;109144;1272;22662;-81
2023/05/08 09:16:29;;;;;;;4.00;3.00;;;;;;;6.83;72.92;97783.77;109101;1272;22494;-81
2023/05/08 09:19:14;;;;;;;3.80;3.00;;;;;;;6.60;73.26;97782.64;109173;1272;22563;-81
2023/05/08 09:21:55;;;;;;;5.20;3.60;;;;;;;6.42;74.40;97782.58;109138;1254;22583;-81
2023/05/08 09:24:59;;;;;;;2.70;2.40;;;;;;;6.42;75.01;97785.42;109181;1272;25411;-81
2023/05/08 09:27:42;;;;;;;4.50;3.10;;;;;;;6.28;75.29;97782.56;109162;1269;22517;-82
2023/05/08 09:30:20;;;;;;;6.70;3.30;;;;;;;6.22;75.52;97784.26;109112;1266;22674;-81
2023/05/08 09:33:13;;;;;;;3.60;2.60;;;;;;;6.26;76.81;97787.41;109161;1269;22614;-81
2023/05/08 09:35:53;;;;;;;3.80;3.30;;;;;;;6.32;76.10;97792.17;109123;1272;22522;-81
2023/05/08 09:38:42;;;;;;;3.70;3.10;;;;;;;6.41;76.17;97788.95;109149;1269;22581;-81
2023/05/08 09:41:23;;;;;;;2.80;2.50;;;;;;;6.49;75.53;97796.13;109150;1272;22522;-81
2023/05/08 09:44:08;;;;;;;6.10;3.00;;;;;;;6.39;75.21;97799.32;109129;1266;22536;-81
2023/05/08 09:46:39;;;;;;;4.10;2.70;;;;;;;6.32;74.86;97799.48;109078;1272;22518;-82
2023/05/08 09:49:18;;;;;;;4.60;3.90;;;;;;;6.26;74.63;97797.17;109145;1272;22470;-81
2023/05/08 09:51:54;;;;;;;4.60;3.40;;;;;;;6.25;74.05;97800.14;109141;1266;22575;-81
2023/05/08 09:54:26;;;;;;;5.30;3.60;;;;;;;6.23;74.78;97803.41;109143;1272;22539;-82
2023/05/08 09:56:57;;;;;;;4.00;2.80;;;;;;;6.32;75.20;97808.36;109115;1269;23190;-82
2023/05/08 09:59:30;;;;;;;4.20;3.20;;;;;;;6.67;75.57;97805.19;109168;1272;23210;-81
2023/05/08 10:02:10;;;;;;;4.30;3.30;;;;;;;7.09;74.07;97803.98;109132;1272;22506;-81
2023/05/08 10:04:41;;;;;;;4.40;3.00;;;;;;;7.34;70.96;97798.04;109189;1270;24304;-81
2023/05/08 10:07:12;;;;;;;3.90;3.50;;;;;;;7.43;69.40;97795.39;109116;1272;22449;-81
2023/05/08 10:10:00;;;;;;;4.00;3.00;;;;;;;7.26;66.99;97797.55;109110;1272;25229;-81
2023/05/08 10:12:31;;;;;;;4.60;3.70;;;;;;;6.93;66.75;97799.16;109125;1272;22731;-81
2023/05/08 10:15:02;;;;;;;4.20;3.30;;;;;;;6.76;68.39;97798.18;109142;1272;22469;-81
2023/05/08 10:17:50;;;;;;;5.80;4.10;;;;;;;6.74;69.48;97791.27;109102;1272;23877;-81
2023/05/08 10:20:23;;;;;;;5.80;3.50;;;;;;;6.78;70.71;97792.77;109101;1269;22896;-81
2023/05/08 10:22:56;;;;;;;4.70;4.20;;;;;;;6.75;70.43;97796.80;109178;1269;22651;-81
2023/05/08 10:25:31;;;;;;;4.50;3.70;;;;;;;6.68;70.88;97795.83;109077;1272;22556;-81
2023/05/08 10:28:11;;;;;;;4.90;3.20;;;;;;;6.53;70.77;97796.33;109156;1272;22578;-81
2023/05/08 10:30:48;;;;;;;5.70;4.10;;;;;;;6.37;71.60;97798.09;109154;1266;22509;-81
2023/05/08 10:33:24;;;;;;;6.40;3.50;;;;;;;6.29;72.21;97793.36;109100;1269;22705;-81
2023/05/08 10:35:55;;;;;;;6.20;4.40;;;;;;;6.35;72.90;97795.11;109116;1272;22519;-81
2023/05/08 10:38:27;;;;;;;7.20;4.80;;;;;;;6.47;73.28;97796.21;109171;1272;22603;-82
2023/05/08 10:41:01;;;;;;;7.30;4.20;;;;;;;6.72;74.23;97791.50;109149;1272;22516;-81
2023/05/08 10:43:33;;;;;;;6.70;4.70;;;;;;;6.99;73.68;97787.50;109258;1272;24326;-81
2023/05/08 10:46:13;;;;;;;5.50;4.30;;;;;;;7.16;74.07;97784.36;109246;1272;24245;-82
2023/05/08 10:48:54;;;;;;;6.70;4.20;;;;;;;7.25;73.51;97786.16;109300;1267;22550;-81
2023/05/08 10:51:38;;;;;;;6.60;5.20;;;;;;;7.28;73.02;97784.65;109203;1272;25396;-81
2023/05/08 10:54:13;;;;;;;6.80;4.60;;;;;;;7.24;72.11;97790.48;109144;1271;22653;-81
2023/05/08 10:56:44;;;;;;;5.50;4.30;;;;;;;7.10;71.36;97790.20;109181;1272;25406;-82
2023/05/08 10:59:21;;;;;;;5.80;4.50;;;;;;;7.05;72.56;97789.61;109150;1270;25284;-81
2023/05/08 11:01:53;;;;;;;7.90;5.00;;;;;;;7.11;72.80;97789.63;109220;1269;24180;-82
2023/05/08 11:04:24;;;;;;;8.20;4.50;;;;;;;7.13;72.48;97786.88;109289;1272;22616;-81
2023/05/08 11:06:59;;;;;;;5.60;4.20;;;;;;;7.12;72.46;97786.04;109267;1272;22690;-81
2023/05/08 11:09:46;;;;;;;6.80;4.20;;;;;;;7.13;71.72;97791.86;109289;1268;22560;-81
2023/05/08 11:12:23;;;;;;;5.60;4.50;;;;;;;7.00;71.18;97791.21;109134;1272;22516;-82
2023/05/08 11:15:02;;;;;;;5.90;4.20;;;;;;;6.98;72.51;97792.48;109149;1272;22701;-82
2023/05/08 11:17:34;;;;;;;6.40;4.20;;;;;;;7.00;72.54;97794.16;109214;1272;23822;-81
2023/05/08 11:20:09;;;;;;;5.40;4.20;;;;;;;6.98;71.74;97793.52;109129;1272;22585;-81
2023/05/08 11:22:48;;;;;;;5.70;5.10;;;;;;;6.91;71.80;97793.84;109264;1272;23748;-81
2023/05/08 11:25:18;;;;;;;;;;;;;;;6.94;72.00;97790.86;109277;1270;24208;-81
2023/05/08 11:28:12;;;;;;;6.60;4.90;;;;;;;6.97;71.97;97785.75;109251;1270;22440;-81
2023/05/08 11:30:46;;;;;;;5.60;4.20;;;;;;;7.15;71.55;97785.30;109165;1272;22780;-82
2023/05/08 11:33:18;;;;;;;6.70;4.50;;;;;;;7.38;71.43;97775.92;109140;1273;22508;-81
2023/05/08 11:35:57;;;;;;;7.70;4.80;;;;;;;7.75;71.18;97777.59;109178;1272;22577;-82
2023/05/08 11:38:34;;;;;;;6.00;4.60;;;;;;;8.03;70.45;97774.23;109173;1272;22559;-82
2023/05/08 11:41:10;;;;;;;5.30;4.50;;;;;;;8.16;69.57;97770.23;109249;1269;22542;-81
2023/05/08 11:44:16;;;;;;;5.20;4.40;;;;;;;8.13;70.26;97771.54;109240;1272;22560;-81
2023/05/08 11:46:52;;;;;;;5.70;4.40;;;;;;;8.17;69.82;97771.30;109280;1272;24211;-81
2023/05/08 11:49:25;;;;;;;4.70;3.60;;;;;;;8.05;67.92;97774.42;109261;1272;22553;-81
2023/05/08 11:51:58;;;;;;;5.20;4.30;;;;;;;7.90;68.44;97772.86;109152;1272;22527;-81
2023/05/08 11:54:33;;;;;;;4.30;3.50;;;;;;;7.98;69.79;97771.55;109199;1273;24215;-81
2023/05/08 11:57:04;;;;;;;5.30;4.20;;;;;;;8.09;68.82;97770.82;109146;1270;22559;-81
2023/05/08 11:59:42;;;;;;;5.70;4.50;;;;;;;8.14;69.24;97766.94;109198;1272;22470;-82
2023/05/08 12:02:13;;;;;;;6.50;4.30;;;;;;;8.15;69.37;97763.37;109124;1272;23783;-81
2023/05/08 12:04:48;;;;;;;5.40;4.20;;;;;;;8.11;68.71;97769.36;109186;1270;22645;-82